createdAt,value
2018-01-21T00:00:01.730Z,4.40
2018-01-21T00:01:33.548Z,4.10
2018-01-21T00:03:06.417Z,5.00
2018-01-21T00:04:37.183Z,4.80
2018-01-21T00:06:09.003Z,5.30
2018-01-21T00:07:40.818Z,4.60
2018-01-21T00:09:12.634Z,4.40
2018-01-21T00:10:44.452Z,4.70
2018-01-21T00:12:16.269Z,5.00
2018-01-21T00:13:48.087Z,5.20
2018-01-21T00:15:19.905Z,4.40
2018-01-21T00:16:51.725Z,4.30
2018-01-21T00:18:23.540Z,4.90
2018-01-21T00:19:55.370Z,4.30
2018-01-21T00:21:27.276Z,4.40
2018-01-21T00:22:58.994Z,4.70
2018-01-21T00:24:30.812Z,4.80
2018-01-21T00:26:02.630Z,5.20
2018-01-21T00:27:34.448Z,5.00
2018-01-21T00:29:06.266Z,4.80
2018-01-21T00:30:38.084Z,5.20
2018-01-21T00:32:09.902Z,4.80
2018-01-21T00:33:41.721Z,5.60
2018-01-21T00:35:13.538Z,4.90
2018-01-21T00:36:45.357Z,4.70
2018-01-21T00:38:17.174Z,5.00
2018-01-21T00:39:49.093Z,5.00
2018-01-21T00:41:20.810Z,5.30
2018-01-21T00:42:52.629Z,5.50
2018-01-21T00:44:24.447Z,5.40
2018-01-21T00:45:56.265Z,5.20
2018-01-21T00:47:28.085Z,5.40
2018-01-21T00:48:59.902Z,5.10
2018-01-21T00:50:31.720Z,5.30
2018-01-21T00:52:03.624Z,5.40
2018-01-21T00:53:35.363Z,6.10
2018-01-21T00:55:07.176Z,5.40
2018-01-21T00:56:38.994Z,5.50
2018-01-21T00:58:10.920Z,5.20
2018-01-21T00:59:42.630Z,6.50
2018-01-21T01:01:14.450Z,5.70
2018-01-21T01:02:46.267Z,5.90
2018-01-21T01:04:18.085Z,5.40
2018-01-21T01:05:49.903Z,6.00
2018-01-21T01:07:21.721Z,5.90
2018-01-21T01:08:53.540Z,6.30
2018-01-21T01:10:25.358Z,6.00
2018-01-21T01:11:57.176Z,6.10
2018-01-21T01:13:28.994Z,5.40
2018-01-21T01:15:00.812Z,6.10
2018-01-21T01:16:32.732Z,5.80
2018-01-21T01:18:04.448Z,6.30
2018-01-21T01:19:36.267Z,6.70
2018-01-21T01:21:08.085Z,6.80
2018-01-21T01:22:39.903Z,6.60
2018-01-21T01:24:11.723Z,6.70
2018-01-21T01:25:43.539Z,7.50
2018-01-21T01:27:15.363Z,7.40
2018-01-21T01:28:47.175Z,7.20
2018-01-21T01:30:18.993Z,7.30
2018-01-21T01:31:50.811Z,7.20
2018-01-21T01:33:22.630Z,7.50
2018-01-21T01:34:54.548Z,7.30
2018-01-21T01:36:26.265Z,8.30
2018-01-21T01:37:58.083Z,8.30
2018-01-21T01:39:29.901Z,8.30
2018-01-21T01:41:01.725Z,8.60
2018-01-21T01:42:33.537Z,8.10
2018-01-21T01:44:05.354Z,7.90
2018-01-21T01:45:37.173Z,9.20
2018-01-21T01:47:08.990Z,8.60
2018-01-21T01:48:40.807Z,9.60
2018-01-21T01:50:12.624Z,9.20
2018-01-21T01:51:44.442Z,9.10
2018-01-21T01:53:16.360Z,8.70
2018-01-21T01:54:48.078Z,8.60
2018-01-21T01:56:19.895Z,9.40
2018-01-21T01:57:51.714Z,9.20
2018-01-21T01:59:23.531Z,9.90
2018-01-21T02:00:55.349Z,10.00
2018-01-21T02:02:27.167Z,10.40
2018-01-21T02:03:58.984Z,10.60
2018-01-21T02:05:30.802Z,11.10
2018-01-21T02:07:02.620Z,10.60
2018-01-21T02:08:34.438Z,11.50
2018-01-21T02:10:06.255Z,10.80
2018-01-21T02:11:38.173Z,10.50
2018-01-21T02:13:09.891Z,11.20
2018-01-21T02:14:41.711Z,12.20
2018-01-21T02:16:13.526Z,12.70
2018-01-21T02:17:45.594Z,11.60
2018-01-21T02:19:17.164Z,11.30
2018-01-21T02:20:48.982Z,11.70
2018-01-21T02:22:20.799Z,11.40
2018-01-21T02:23:52.616Z,13.30
2018-01-21T02:25:24.435Z,12.60
2018-01-21T02:26:56.253Z,12.10
2018-01-21T02:28:28.070Z,13.00
2018-01-21T02:30:00.149Z,11.30
2018-01-21T02:31:31.707Z,13.00
2018-01-21T02:33:03.525Z,12.40
2018-01-21T02:34:35.342Z,13.90
2018-01-21T02:36:07.161Z,11.60
2018-01-21T02:37:38.979Z,11.90
2018-01-21T02:39:10.797Z,11.80
2018-01-21T02:40:42.615Z,11.30
2018-01-21T02:42:14.433Z,11.60
2018-01-21T02:43:46.251Z,11.80
2018-01-21T02:45:18.070Z,11.90
2018-01-21T02:46:49.887Z,11.40
2018-01-21T02:48:22.005Z,12.10
2018-01-21T02:49:53.523Z,11.30
2018-01-21T02:51:25.344Z,11.30
2018-01-21T02:52:57.159Z,10.80
2018-01-21T02:54:28.978Z,11.40
2018-01-21T02:56:00.796Z,12.50
2018-01-21T02:57:32.613Z,11.80
2018-01-21T02:59:04.431Z,11.20
2018-01-21T03:00:36.249Z,11.10
2018-01-21T03:02:08.067Z,12.20
2018-01-21T03:03:39.885Z,12.60
2018-01-21T03:05:11.703Z,12.30
2018-01-21T03:06:43.622Z,11.70
2018-01-21T03:08:15.340Z,12.50
2018-01-21T03:09:47.158Z,10.40
2018-01-21T03:11:18.976Z,10.40
2018-01-21T03:12:50.795Z,11.10
2018-01-21T03:14:22.612Z,9.30
2018-01-21T03:15:54.433Z,9.50
2018-01-21T03:17:26.249Z,10.20
2018-01-21T03:18:58.068Z,10.80
2018-01-21T03:20:29.886Z,10.00
2018-01-21T03:22:01.705Z,10.20
2018-01-21T03:23:33.523Z,10.60
2018-01-21T03:25:05.442Z,11.00
2018-01-21T03:26:37.160Z,10.30
2018-01-21T03:28:08.979Z,10.30
2018-01-21T03:29:40.798Z,10.20
2018-01-21T03:31:12.767Z,10.60
2018-01-21T03:32:44.435Z,11.50
2018-01-21T03:34:16.253Z,10.10
2018-01-21T03:35:48.077Z,10.60
2018-01-21T03:37:19.891Z,11.70
2018-01-21T03:38:51.708Z,11.90
2018-01-21T03:40:23.527Z,12.20
2018-01-21T03:41:55.345Z,12.30
2018-01-21T03:43:27.264Z,13.90
2018-01-21T03:44:58.987Z,12.30
2018-01-21T03:46:30.800Z,13.50
2018-01-21T03:48:02.618Z,13.30
2018-01-21T03:49:34.692Z,13.30
2018-01-21T03:51:06.254Z,12.70
2018-01-21T03:52:38.072Z,13.00
2018-01-21T03:54:09.890Z,12.90
2018-01-21T03:55:41.708Z,13.00
2018-01-21T03:57:13.527Z,12.00
2018-01-21T03:58:45.344Z,12.60
2018-01-21T04:00:17.162Z,11.30
2018-01-21T04:01:49.081Z,10.40
2018-01-21T04:03:20.798Z,10.80
2018-01-21T04:04:52.617Z,12.10
2018-01-21T04:06:24.436Z,12.40
2018-01-21T04:07:56.252Z,10.90
2018-01-21T04:09:28.071Z,11.10
2018-01-21T04:10:59.888Z,11.80
2018-01-21T04:12:31.706Z,11.80
2018-01-21T04:14:03.526Z,12.60
2018-01-21T04:15:35.341Z,12.10
2018-01-21T04:17:07.164Z,13.60
2018-01-21T04:18:38.978Z,12.90
2018-01-21T04:20:11.055Z,12.80
2018-01-21T04:21:42.613Z,13.20
2018-01-21T04:23:14.431Z,12.70
2018-01-21T04:24:46.249Z,12.60
2018-01-21T04:26:18.067Z,12.70
2018-01-21T04:27:49.887Z,12.50
2018-01-21T04:29:21.703Z,12.70
2018-01-21T04:30:53.521Z,11.20
2018-01-21T04:32:25.490Z,11.10
2018-01-21T04:33:57.157Z,12.10
2018-01-21T04:35:28.985Z,12.70
2018-01-21T04:37:00.794Z,11.90
2018-01-21T04:38:32.711Z,11.80
2018-01-21T04:40:04.428Z,12.60
2018-01-21T04:41:36.246Z,13.30
2018-01-21T04:43:08.064Z,12.40
2018-01-21T04:44:39.882Z,13.80
2018-01-21T04:46:11.700Z,14.00
2018-01-21T04:47:43.517Z,14.70
2018-01-21T04:49:15.335Z,14.60
2018-01-21T04:50:47.403Z,12.80
2018-01-21T04:52:18.971Z,14.00
2018-01-21T04:53:50.789Z,13.10
2018-01-21T04:55:22.606Z,14.20
2018-01-21T04:56:54.530Z,14.10
2018-01-21T04:58:26.242Z,14.20
2018-01-21T04:59:58.059Z,14.30
2018-01-21T05:01:29.877Z,14.30
2018-01-21T05:03:01.845Z,16.20
2018-01-21T05:04:33.512Z,14.80
2018-01-21T05:06:05.329Z,16.70
2018-01-21T05:07:37.147Z,16.40
2018-01-21T05:09:08.963Z,14.20
2018-01-21T05:10:40.781Z,14.40
2018-01-21T05:12:12.598Z,15.60
2018-01-21T05:13:44.415Z,17.70
2018-01-21T05:15:16.333Z,18.60
2018-01-21T05:16:48.049Z,16.50
2018-01-21T05:18:19.868Z,17.50
2018-01-21T05:19:51.684Z,16.20
2018-01-21T05:21:23.752Z,17.10
2018-01-21T05:22:55.319Z,14.40
2018-01-21T05:24:27.136Z,14.90
2018-01-21T05:25:58.954Z,16.00
2018-01-21T05:27:30.771Z,17.80
2018-01-21T05:29:02.589Z,17.40
2018-01-21T05:30:34.406Z,16.60
2018-01-21T05:32:06.224Z,17.40
2018-01-21T05:33:38.142Z,19.10
2018-01-21T05:35:09.860Z,19.90
2018-01-21T05:36:41.677Z,19.30
2018-01-21T05:38:13.493Z,16.90
2018-01-21T05:39:45.310Z,19.00
2018-01-21T05:41:17.127Z,19.10
2018-01-21T05:42:48.944Z,20.20
2018-01-21T05:44:20.762Z,19.10
2018-01-21T05:45:52.730Z,20.50
2018-01-21T05:47:24.399Z,16.50
2018-01-21T05:48:56.214Z,18.50
2018-01-21T05:50:28.033Z,19.00
2018-01-21T05:52:00.199Z,17.20
2018-01-21T05:53:31.666Z,15.80
2018-01-21T05:55:03.483Z,16.40
2018-01-21T05:56:35.300Z,19.20
2018-01-21T05:58:07.119Z,19.10
2018-01-21T05:59:38.936Z,18.90
2018-01-21T06:01:10.754Z,16.70
2018-01-21T06:02:42.570Z,18.00
2018-01-21T06:04:14.389Z,17.90
2018-01-21T06:05:46.207Z,17.00
2018-01-21T06:07:18.030Z,19.80
2018-01-21T06:08:49.842Z,18.50
2018-01-21T06:10:21.913Z,17.00
2018-01-21T06:11:53.477Z,18.20
2018-01-21T06:13:25.295Z,19.50
2018-01-21T06:14:57.116Z,18.50
2018-01-21T06:16:28.931Z,17.70
2018-01-21T06:18:00.749Z,24.70
2018-01-21T06:19:32.566Z,20.80
2018-01-21T06:21:04.384Z,18.90
2018-01-21T06:22:36.202Z,21.50
2018-01-21T06:24:08.020Z,20.80
2018-01-21T06:25:39.837Z,23.10
2018-01-21T06:27:11.655Z,20.30
2018-01-21T06:28:43.573Z,21.70
2018-01-21T06:30:15.291Z,22.40
2018-01-21T06:31:47.110Z,23.20
2018-01-21T06:33:18.927Z,24.50
2018-01-21T06:34:50.895Z,25.20
2018-01-21T06:36:22.562Z,24.60
2018-01-21T06:37:54.379Z,27.10
2018-01-21T06:39:26.197Z,27.90
2018-01-21T06:40:58.014Z,26.50
2018-01-21T06:42:29.832Z,28.60
2018-01-21T06:44:01.651Z,27.70
2018-01-21T06:45:33.467Z,28.00
2018-01-21T06:47:05.384Z,26.40
2018-01-21T06:48:37.101Z,28.30
2018-01-21T06:50:08.918Z,28.50
2018-01-21T06:51:40.736Z,24.50
2018-01-21T06:53:12.703Z,20.30
2018-01-21T06:54:44.370Z,19.60
2018-01-21T06:56:16.186Z,18.40
2018-01-21T06:57:48.004Z,19.20
2018-01-21T06:59:19.820Z,18.60
2018-01-21T07:00:51.636Z,18.00
2018-01-21T07:02:23.453Z,16.90
2018-01-21T07:03:55.270Z,16.60
2018-01-21T07:05:27.200Z,16.30
2018-01-21T07:06:58.916Z,16.70
2018-01-21T07:08:30.734Z,16.30
2018-01-21T07:10:02.551Z,14.80
2018-01-21T07:11:34.366Z,14.70
2018-01-21T07:13:06.184Z,15.60
2018-01-21T07:14:37.999Z,13.40
2018-01-21T07:16:09.817Z,14.00
2018-01-21T07:17:41.631Z,13.10
2018-01-21T07:19:13.450Z,13.50
2018-01-21T07:20:45.270Z,12.50
2018-01-21T07:22:17.081Z,12.50
2018-01-21T07:23:49.012Z,12.60
2018-01-21T07:25:20.753Z,12.40
2018-01-21T07:26:52.530Z,12.00
2018-01-21T07:28:24.346Z,13.40
2018-01-21T07:29:56.264Z,12.60
2018-01-21T07:31:27.979Z,12.80
2018-01-21T07:32:59.796Z,12.70
2018-01-21T07:34:31.612Z,12.50
2018-01-21T07:36:03.430Z,12.10
2018-01-21T07:37:35.245Z,12.60
2018-01-21T07:39:07.062Z,12.30
2018-01-21T07:40:38.878Z,12.10
2018-01-21T07:42:10.794Z,13.90
2018-01-21T07:43:42.511Z,13.00
2018-01-21T07:45:14.327Z,13.60
2018-01-21T07:46:46.143Z,13.70
2018-01-21T07:48:17.960Z,12.50
2018-01-21T07:49:49.776Z,14.20
2018-01-21T07:51:21.592Z,14.80
2018-01-21T07:52:53.409Z,15.40
2018-01-21T07:54:25.475Z,16.30
2018-01-21T07:55:57.041Z,15.20
2018-01-21T07:57:28.857Z,15.70
2018-01-21T07:59:00.673Z,15.10
2018-01-21T08:00:32.590Z,15.80
2018-01-21T08:02:04.319Z,15.40
2018-01-21T08:03:36.123Z,14.40
2018-01-21T08:05:07.940Z,14.80
2018-01-21T08:06:39.906Z,15.90
2018-01-21T08:08:11.573Z,13.60
2018-01-21T08:09:43.390Z,13.80
2018-01-21T08:11:15.208Z,15.00
2018-01-21T08:12:47.024Z,17.70
2018-01-21T08:14:18.840Z,17.10
2018-01-21T08:15:50.658Z,17.40
2018-01-21T08:17:22.475Z,17.60
2018-01-21T08:18:54.392Z,16.20
2018-01-21T08:20:26.109Z,18.30
2018-01-21T08:21:57.928Z,16.70
2018-01-21T08:23:29.742Z,17.70
2018-01-21T08:25:01.810Z,17.20
2018-01-21T08:26:33.381Z,16.10
2018-01-21T08:28:05.195Z,16.90
2018-01-21T08:29:37.012Z,17.50
2018-01-21T08:31:08.829Z,17.30
2018-01-21T08:32:40.646Z,19.20
2018-01-21T08:34:12.464Z,18.90
2018-01-21T08:35:44.281Z,18.70
2018-01-21T08:37:16.199Z,18.20
2018-01-21T08:38:47.916Z,17.40
2018-01-21T08:40:19.733Z,20.10
2018-01-21T08:41:51.550Z,19.40
2018-01-21T08:43:23.367Z,19.30
2018-01-21T08:44:55.185Z,19.40
2018-01-21T08:46:27.001Z,18.60
2018-01-21T08:47:58.818Z,19.10
2018-01-21T08:49:30.636Z,20.70
2018-01-21T08:51:02.453Z,18.80
2018-01-21T08:52:34.270Z,19.20
2018-01-21T08:54:06.087Z,21.90
2018-01-21T08:55:38.256Z,21.90
2018-01-21T08:57:09.722Z,21.10
2018-01-21T08:58:41.540Z,21.30
2018-01-21T09:00:13.357Z,20.20
2018-01-21T09:01:45.324Z,22.10
2018-01-21T09:03:16.991Z,20.90
2018-01-21T09:04:48.809Z,19.50
2018-01-21T09:06:20.626Z,17.40
2018-01-21T09:07:52.594Z,16.10
2018-01-21T09:09:24.261Z,17.60
2018-01-21T09:10:56.079Z,16.80
2018-01-21T09:12:27.896Z,15.30
2018-01-21T09:13:59.813Z,14.50
2018-01-21T09:15:31.532Z,14.90
2018-01-21T09:17:03.349Z,19.40
2018-01-21T09:18:35.167Z,18.00
2018-01-21T09:20:06.986Z,18.70
2018-01-21T09:21:38.804Z,19.20
2018-01-21T09:23:10.622Z,21.00
2018-01-21T09:24:42.440Z,20.80
2018-01-21T09:26:14.511Z,20.30
2018-01-21T09:27:46.077Z,19.00
2018-01-21T09:29:17.895Z,22.30
2018-01-21T09:30:49.713Z,20.10
2018-01-21T09:32:21.736Z,21.30
2018-01-21T09:33:53.350Z,20.50
2018-01-21T09:35:25.169Z,23.00
2018-01-21T09:36:56.986Z,22.50
2018-01-21T09:38:28.805Z,21.60
2018-01-21T09:40:00.624Z,22.00
2018-01-21T09:41:32.443Z,22.00
2018-01-21T09:43:04.261Z,21.70
2018-01-21T09:44:36.080Z,21.30
2018-01-21T09:46:07.888Z,22.10
2018-01-21T09:47:39.707Z,23.60
2018-01-21T09:49:11.524Z,22.50
2018-01-21T09:50:43.443Z,23.90
2018-01-21T09:52:15.162Z,23.90
2018-01-21T09:53:46.980Z,23.40
2018-01-21T09:55:18.799Z,22.60
2018-01-21T09:56:50.617Z,21.70
2018-01-21T09:58:22.436Z,22.60
2018-01-21T09:59:54.255Z,21.40
2018-01-21T10:01:26.074Z,23.20
2018-01-21T10:02:58.043Z,21.10
2018-01-21T10:04:29.711Z,21.80
2018-01-21T10:06:01.530Z,23.20
2018-01-21T10:07:33.352Z,21.50
2018-01-21T10:09:05.266Z,23.10
2018-01-21T10:10:36.988Z,21.30
2018-01-21T10:12:08.807Z,22.30
2018-01-21T10:13:40.622Z,23.10
2018-01-21T10:15:12.442Z,21.40
2018-01-21T10:16:44.260Z,22.10
2018-01-21T10:18:16.080Z,22.20
2018-01-21T10:19:47.899Z,22.50
2018-01-21T10:21:19.717Z,22.50
2018-01-21T10:22:51.536Z,22.80
2018-01-21T10:24:23.401Z,23.30
2018-01-21T10:25:55.173Z,23.50
2018-01-21T10:27:27.092Z,24.40
2018-01-21T10:28:58.811Z,25.20
2018-01-21T10:30:30.630Z,24.50
2018-01-21T10:32:02.449Z,23.10
2018-01-21T10:33:34.458Z,25.40
2018-01-21T10:35:06.086Z,24.70
2018-01-21T10:36:37.905Z,24.80
2018-01-21T10:38:09.724Z,26.40
2018-01-21T10:39:41.543Z,26.10
2018-01-21T10:41:13.364Z,27.30
2018-01-21T10:42:45.180Z,26.30
2018-01-21T10:44:17.000Z,26.70
2018-01-21T10:45:48.918Z,27.50
2018-01-21T10:47:20.638Z,28.50
2018-01-21T10:48:52.455Z,27.90
2018-01-21T10:50:24.275Z,29.00
2018-01-21T10:51:56.094Z,27.90
2018-01-21T10:53:27.913Z,28.50
2018-01-21T10:54:59.731Z,28.10
2018-01-21T10:56:31.551Z,31.00
2018-01-21T10:58:03.371Z,29.00
2018-01-21T10:59:35.190Z,28.90
2018-01-21T11:01:07.009Z,29.60
2018-01-21T11:02:38.828Z,28.20
2018-01-21T11:04:10.820Z,27.20
2018-01-21T11:05:42.539Z,27.10
2018-01-21T11:07:14.360Z,26.80
2018-01-21T11:08:46.180Z,25.40
2018-01-21T11:10:18.150Z,25.00
2018-01-21T11:11:49.751Z,26.10
2018-01-21T11:13:21.572Z,23.50
2018-01-21T11:14:53.393Z,20.60
2018-01-21T11:16:25.215Z,20.90
2018-01-21T11:17:57.037Z,20.70
2018-01-21T11:19:28.859Z,20.80
2018-01-21T11:21:00.681Z,19.60
2018-01-21T11:22:32.659Z,18.80
2018-01-21T11:24:04.325Z,18.60
2018-01-21T11:25:36.148Z,18.30
2018-01-21T11:27:07.970Z,18.10
2018-01-21T11:28:39.942Z,17.80
2018-01-21T11:30:11.614Z,16.80
2018-01-21T11:31:43.436Z,16.50
2018-01-21T11:33:15.259Z,16.70
2018-01-21T11:34:47.080Z,15.30
2018-01-21T11:36:18.903Z,16.20
2018-01-21T11:37:50.737Z,16.00
2018-01-21T11:39:22.546Z,16.20
2018-01-21T11:40:54.468Z,16.80
2018-01-21T11:42:26.190Z,15.50
2018-01-21T11:43:58.012Z,14.60
2018-01-21T11:45:29.832Z,14.80
2018-01-21T11:47:01.654Z,15.20
2018-01-21T11:48:33.476Z,14.40
2018-01-21T11:50:05.298Z,14.50
2018-01-21T11:51:37.126Z,15.50
2018-01-21T11:53:08.944Z,14.50
2018-01-21T11:54:40.765Z,14.40
2018-01-21T11:56:12.588Z,14.10
2018-01-21T11:57:44.411Z,13.00
2018-01-21T11:59:16.585Z,13.40
2018-01-21T12:00:48.058Z,13.40
2018-01-21T12:02:19.881Z,12.40
2018-01-21T12:03:51.708Z,13.20
2018-01-21T12:05:23.528Z,13.60
2018-01-21T12:06:55.352Z,13.00
2018-01-21T12:08:27.176Z,11.30
2018-01-21T12:09:58.999Z,10.80
2018-01-21T12:11:30.824Z,11.10
2018-01-21T12:13:02.647Z,11.50
2018-01-21T12:14:34.471Z,10.80
2018-01-21T12:16:06.296Z,11.30
2018-01-21T12:17:38.921Z,11.00
2018-01-21T12:19:09.946Z,11.60
2018-01-21T12:20:41.770Z,10.00
2018-01-21T12:22:13.595Z,10.70
2018-01-21T12:23:45.420Z,11.20
2018-01-21T12:25:17.244Z,11.00
2018-01-21T12:26:49.071Z,10.90
2018-01-21T12:28:20.897Z,11.30
2018-01-21T12:29:52.721Z,11.80
2018-01-21T12:31:24.546Z,11.30
2018-01-21T12:32:56.372Z,9.20
2018-01-21T12:34:28.198Z,9.40
2018-01-21T12:36:00.124Z,11.50
2018-01-21T12:37:31.849Z,9.80
2018-01-21T12:39:03.675Z,9.20
2018-01-21T12:40:35.501Z,10.00
2018-01-21T12:42:07.327Z,6.30
2018-01-21T12:43:39.163Z,8.80
2018-01-21T12:45:10.979Z,9.00
2018-01-21T12:46:42.805Z,8.40
2018-01-21T12:48:14.631Z,9.80
2018-01-21T12:49:46.460Z,9.70
2018-01-21T12:51:18.283Z,10.10
2018-01-21T12:52:50.108Z,9.80
2018-01-21T12:54:22.035Z,9.50
2018-01-21T12:55:53.761Z,8.60
2018-01-21T12:57:25.587Z,9.50
2018-01-21T12:58:57.415Z,9.30
2018-01-21T13:00:29.241Z,8.70
2018-01-21T13:02:01.068Z,9.70
2018-01-21T13:03:32.895Z,9.60
2018-01-21T13:05:04.723Z,10.00
2018-01-21T13:06:36.550Z,9.70
2018-01-21T13:08:08.377Z,11.20
2018-01-21T13:09:40.205Z,12.90
2018-01-21T13:11:12.034Z,10.60
2018-01-21T13:12:43.961Z,11.70
2018-01-21T13:14:15.690Z,11.40
2018-01-21T13:15:47.518Z,12.00
2018-01-21T13:17:19.346Z,10.50
2018-01-21T13:18:51.176Z,11.90
2018-01-21T13:20:23.006Z,12.20
2018-01-21T13:21:54.833Z,12.20
2018-01-21T13:23:26.662Z,12.30
2018-01-21T13:24:58.490Z,12.30
2018-01-21T13:26:30.319Z,11.90
2018-01-21T13:28:02.148Z,11.50
2018-01-21T13:29:34.278Z,10.90
2018-01-21T13:31:05.906Z,9.50
2018-01-21T13:32:37.635Z,12.10
2018-01-21T13:34:09.463Z,11.50
2018-01-21T13:35:41.295Z,9.80
2018-01-21T13:37:13.120Z,8.70
2018-01-21T13:38:44.949Z,9.10
2018-01-21T13:40:16.779Z,8.40
2018-01-21T13:41:48.606Z,8.20
2018-01-21T13:43:20.434Z,8.20
2018-01-21T13:44:52.263Z,8.40
2018-01-21T13:46:24.092Z,8.40
2018-01-21T13:47:55.921Z,9.00
2018-01-21T13:49:27.913Z,8.10
2018-01-21T13:50:59.580Z,7.20
2018-01-21T13:52:31.410Z,7.60
2018-01-21T13:54:03.245Z,6.80
2018-01-21T13:55:35.069Z,5.30
2018-01-21T13:57:06.905Z,5.40
2018-01-21T13:58:38.727Z,6.50
2018-01-21T14:00:10.556Z,6.80
2018-01-21T14:01:42.636Z,7.00
2018-01-21T14:03:14.215Z,6.80
2018-01-21T14:04:46.044Z,6.30
2018-01-21T14:06:17.878Z,7.00
2018-01-21T14:07:49.803Z,5.70
2018-01-21T14:09:21.532Z,6.70
2018-01-21T14:10:53.364Z,6.50
2018-01-21T14:12:25.191Z,6.50
2018-01-21T14:13:57.020Z,6.60
2018-01-21T14:15:28.850Z,6.00
2018-01-21T14:17:00.681Z,5.50
2018-01-21T14:18:32.510Z,5.20
2018-01-21T14:20:04.340Z,5.30
2018-01-21T14:21:36.172Z,5.30
2018-01-21T14:23:08.003Z,4.90
2018-01-21T14:24:39.834Z,5.50
2018-01-21T14:26:11.765Z,5.50
2018-01-21T14:27:43.496Z,5.60
2018-01-21T14:29:15.327Z,5.50
2018-01-21T14:30:47.158Z,4.90
2018-01-21T14:32:19.241Z,4.40
2018-01-21T14:33:50.833Z,4.00
2018-01-21T14:35:22.655Z,4.00
2018-01-21T14:36:54.486Z,3.40
2018-01-21T14:38:26.319Z,3.40
2018-01-21T14:39:58.151Z,3.30
2018-01-21T14:41:29.984Z,3.00
2018-01-21T14:43:01.816Z,3.40
2018-01-21T14:44:33.748Z,3.80
2018-01-21T14:46:05.481Z,3.30
2018-01-21T14:47:37.314Z,3.40
2018-01-21T14:49:09.147Z,3.40
2018-01-21T14:50:40.980Z,3.70
2018-01-21T14:52:12.813Z,3.70
2018-01-21T14:53:44.647Z,3.80
2018-01-21T14:55:16.502Z,3.80
2018-01-21T14:56:48.313Z,3.70
2018-01-21T14:58:20.146Z,4.00
2018-01-21T14:59:51.980Z,3.80
2018-01-21T15:01:23.813Z,3.70
2018-01-21T15:02:55.996Z,4.00
2018-01-21T15:04:27.479Z,3.70
2018-01-21T15:05:59.312Z,3.70
2018-01-21T15:07:31.145Z,3.90
2018-01-21T15:09:03.128Z,3.30
2018-01-21T15:10:34.811Z,3.00
2018-01-21T15:12:06.642Z,3.80
2018-01-21T15:13:38.591Z,4.00
2018-01-21T15:15:10.307Z,3.70
2018-01-21T15:16:42.143Z,3.80
2018-01-21T15:18:13.977Z,3.50
2018-01-21T15:19:45.807Z,3.40
2018-01-21T15:21:17.791Z,3.50
2018-01-21T15:22:49.474Z,3.70
2018-01-21T15:24:21.306Z,4.40
2018-01-21T15:25:53.189Z,4.40
2018-01-21T15:27:24.968Z,4.40
2018-01-21T15:28:56.798Z,4.30
2018-01-21T15:30:28.627Z,4.70
2018-01-21T15:32:00.461Z,4.50
2018-01-21T15:33:32.535Z,4.70
2018-01-21T15:35:04.113Z,4.80
2018-01-21T15:36:35.940Z,5.00
2018-01-21T15:38:07.768Z,5.40
2018-01-21T15:39:39.695Z,5.30
2018-01-21T15:41:11.424Z,5.30
2018-01-21T15:42:43.251Z,4.80
2018-01-21T15:44:15.080Z,5.10
2018-01-21T15:45:46.904Z,4.90
2018-01-21T15:47:18.731Z,4.20
2018-01-21T15:48:50.558Z,4.50
2018-01-21T15:50:22.385Z,4.70
2018-01-21T15:51:54.212Z,3.90
2018-01-21T15:53:26.038Z,3.10
2018-01-21T15:54:57.865Z,2.60
2018-01-21T15:56:29.691Z,2.80
2018-01-21T15:58:01.618Z,2.70
2018-01-21T15:59:33.342Z,3.30
2018-01-21T16:01:05.168Z,2.80
2018-01-21T16:02:36.995Z,2.60
2018-01-21T16:04:08.821Z,2.60
2018-01-21T16:05:40.647Z,3.10
2018-01-21T16:07:12.475Z,2.80
2018-01-21T16:08:44.299Z,2.80
2018-01-21T16:10:16.125Z,2.70
2018-01-21T16:11:47.951Z,2.40
2018-01-21T16:13:19.778Z,2.90
2018-01-21T16:14:51.604Z,3.20
2018-01-21T16:16:23.530Z,2.60
2018-01-21T16:17:55.256Z,2.70
2018-01-21T16:19:27.099Z,2.50
2018-01-21T16:20:58.908Z,2.50
2018-01-21T16:22:30.740Z,2.90
2018-01-21T16:24:02.561Z,3.30
2018-01-21T16:25:34.385Z,2.90
2018-01-21T16:27:06.212Z,2.80
2018-01-21T16:28:38.187Z,2.80
2018-01-21T16:30:09.863Z,2.90
2018-01-21T16:31:41.689Z,2.60
2018-01-21T16:33:13.515Z,2.90
2018-01-21T16:34:45.441Z,3.00
2018-01-21T16:36:17.166Z,2.70
2018-01-21T16:37:48.992Z,3.10
2018-01-21T16:39:20.818Z,2.50
2018-01-21T16:40:52.645Z,3.10
2018-01-21T16:42:24.470Z,2.70
2018-01-21T16:43:56.296Z,2.70
2018-01-21T16:45:28.122Z,6.90
2018-01-21T16:46:59.948Z,14.00
2018-01-21T16:48:31.774Z,15.40
2018-01-21T16:50:03.600Z,14.00
2018-01-21T16:51:35.425Z,16.80
2018-01-21T16:53:07.352Z,13.80
2018-01-21T16:54:39.077Z,14.80
2018-01-21T16:56:10.903Z,15.30
2018-01-21T16:57:42.729Z,14.10
2018-01-21T16:59:14.554Z,14.50
2018-01-21T17:00:46.380Z,16.50
2018-01-21T17:02:18.206Z,17.30
2018-01-21T17:03:50.032Z,17.40
2018-01-21T17:05:22.108Z,18.20
2018-01-21T17:06:53.683Z,19.30
2018-01-21T17:08:25.509Z,24.00
2018-01-21T17:09:57.334Z,26.80
2018-01-21T17:11:29.259Z,27.70
2018-01-21T17:13:00.986Z,27.80
2018-01-21T17:14:32.810Z,28.40
2018-01-21T17:16:04.634Z,26.70
2018-01-21T17:17:36.460Z,26.70
2018-01-21T17:19:08.285Z,26.60
2018-01-21T17:20:40.109Z,24.30
2018-01-21T17:22:11.934Z,25.40
2018-01-21T17:23:43.759Z,23.90
2018-01-21T17:25:15.583Z,23.50
2018-01-21T17:26:47.407Z,22.80
2018-01-21T17:28:19.231Z,20.50
2018-01-21T17:29:51.155Z,21.40
2018-01-21T17:31:22.879Z,20.80
2018-01-21T17:32:54.703Z,19.70
2018-01-21T17:34:26.526Z,19.30
2018-01-21T17:35:58.601Z,21.10
2018-01-21T17:37:30.174Z,24.40
2018-01-21T17:39:02.016Z,27.30
2018-01-21T17:40:33.820Z,31.80
2018-01-21T17:42:05.645Z,30.80
2018-01-21T17:43:37.467Z,36.50
2018-01-21T17:45:09.291Z,40.10
2018-01-21T17:46:41.114Z,41.50
2018-01-21T17:48:13.037Z,42.40
2018-01-21T17:49:44.760Z,39.00
2018-01-21T17:51:16.583Z,42.10
2018-01-21T17:52:48.405Z,41.60
2018-01-21T17:54:20.228Z,42.00
2018-01-21T17:55:52.051Z,42.10
2018-01-21T17:57:23.876Z,42.60
2018-01-21T17:58:55.697Z,45.30
2018-01-21T18:00:27.520Z,45.80
2018-01-21T18:01:59.346Z,47.00
2018-01-21T18:03:31.165Z,48.80
2018-01-21T18:05:02.990Z,50.20
2018-01-21T18:06:35.162Z,49.10
2018-01-21T18:08:06.633Z,49.20
2018-01-21T18:09:38.456Z,50.20
2018-01-21T18:11:10.279Z,50.80
2018-01-21T18:12:42.101Z,49.40
2018-01-21T18:14:13.925Z,50.10
2018-01-21T18:15:45.748Z,46.40
2018-01-21T18:17:17.569Z,46.30
2018-01-21T18:18:49.391Z,46.20
2018-01-21T18:20:21.214Z,45.20
2018-01-21T18:21:53.036Z,46.00
2018-01-21T18:23:24.858Z,43.60
2018-01-21T18:24:56.683Z,42.50
2018-01-21T18:26:28.503Z,42.30
2018-01-21T18:28:00.326Z,43.60
2018-01-21T18:29:32.147Z,40.20
2018-01-21T18:31:03.969Z,41.50
2018-01-21T18:32:35.791Z,39.00
2018-01-21T18:34:07.613Z,39.50
2018-01-21T18:35:39.435Z,37.60
2018-01-21T18:37:11.758Z,37.30
2018-01-21T18:38:43.079Z,38.00
2018-01-21T18:40:14.901Z,35.90
2018-01-21T18:41:46.725Z,35.70
2018-01-21T18:43:18.545Z,35.50
2018-01-21T18:44:50.367Z,33.30
2018-01-21T18:46:22.189Z,34.50
2018-01-21T18:47:54.011Z,34.10
2018-01-21T18:49:25.836Z,32.40
2018-01-21T18:50:57.656Z,32.50
2018-01-21T18:52:29.478Z,31.80
2018-01-21T18:54:01.300Z,30.50
2018-01-21T18:55:33.222Z,31.00
2018-01-21T18:57:04.944Z,29.90
2018-01-21T18:58:36.767Z,28.40
2018-01-21T19:00:08.590Z,27.40
2018-01-21T19:01:40.412Z,26.70
2018-01-21T19:03:12.236Z,25.70
2018-01-21T19:04:44.059Z,25.80
2018-01-21T19:06:15.881Z,26.40
2018-01-21T19:07:47.705Z,28.10
2018-01-21T19:09:19.528Z,27.90
2018-01-21T19:10:51.354Z,30.50
2018-01-21T19:12:23.175Z,29.70
2018-01-21T19:13:55.098Z,27.30
2018-01-21T19:15:26.821Z,28.70
2018-01-21T19:16:58.644Z,29.90
2018-01-21T19:18:30.468Z,29.90
2018-01-21T19:20:02.290Z,28.10
2018-01-21T19:21:34.136Z,31.10
2018-01-21T19:23:05.959Z,31.10
2018-01-21T19:24:37.764Z,32.90
2018-01-21T19:26:09.582Z,30.70
2018-01-21T19:27:41.404Z,34.00
2018-01-21T19:29:13.227Z,38.30
2018-01-21T19:30:45.052Z,23.30
2018-01-21T19:32:16.973Z,19.90
2018-01-21T19:33:48.695Z,18.80
2018-01-21T19:35:20.517Z,18.40
2018-01-21T19:36:52.340Z,14.60
2018-01-21T19:38:24.162Z,13.60
2018-01-21T19:39:56.019Z,13.80
2018-01-21T19:41:27.807Z,12.70
2018-01-21T19:42:59.629Z,12.80
2018-01-21T19:44:31.452Z,14.10
2018-01-21T19:46:03.282Z,13.40
2018-01-21T19:47:35.094Z,13.60
2018-01-21T19:49:06.915Z,13.70
2018-01-21T19:50:38.838Z,17.90
2018-01-21T19:52:10.561Z,20.80